sensor_id;sensor_type;location;lat;lon;timestamp;temperature;humidity
8858;DHT22;4465;50.904;4.696;2023-08-12T00:00:19;21.20;99.90
8858;DHT22;4465;50.904;4.696;2023-08-12T00:02:45;21.20;99.90
8858;DHT22;4465;50.904;4.696;2023-08-12T00:05:12;21.10;99.90
8858;DHT22;4465;50.904;4.696;2023-08-12T00:07:41;21.10;99.90
8858;DHT22;4465;50.904;4.696;2023-08-12T00:10:08;21.10;99.90
8858;DHT22;4465;50.904;4.696;2023-08-12T00:12:37;21.10;99.90
8858;DHT22;4465;50.904;4.696;2023-08-12T00:15:04;21.10;99.90
8858;DHT22;4465;50.904;4.696;2023-08-12T00:17:32;21.00;99.90
8858;DHT22;4465;50.904;4.696;2023-08-12T00:19:59;21.00;99.90
8858;DHT22;4465;50.904;4.696;2023-08-12T00:22:25;21.00;99.90
8858;DHT22;4465;50.904;4.696;2023-08-12T00:24:51;21.00;99.90
8858;DHT22;4465;50.904;4.696;2023-08-12T00:27:20;21.00;99.90
8858;DHT22;4465;50.904;4.696;2023-08-12T00:29:46;21.00;99.90
8858;DHT22;4465;50.904;4.696;2023-08-12T00:32:14;21.00;99.90
8858;DHT22;4465;50.904;4.696;2023-08-12T00:34:40;21.00;99.90
8858;DHT22;4465;50.904;4.696;2023-08-12T00:37:06;21.00;99.90
8858;DHT22;4465;50.904;4.696;2023-08-12T00:39:34;21.00;99.90
8858;DHT22;4465;50.904;4.696;2023-08-12T00:42:00;20.90;99.90
8858;DHT22;4465;50.904;4.696;2023-08-12T00:44:28;20.90;99.90
8858;DHT22;4465;50.904;4.696;2023-08-12T00:46:54;20.90;99.90
8858;DHT22;4465;50.904;4.696;2023-08-12T00:49:22;20.90;99.90
8858;DHT22;4465;50.904;4.696;2023-08-12T00:51:50;20.90;99.90
8858;DHT22;4465;50.904;4.696;2023-08-12T00:54:16;20.90;99.90
8858;DHT22;4465;50.904;4.696;2023-08-12T00:56:45;20.90;99.90
8858;DHT22;4465;50.904;4.696;2023-08-12T00:59:12;20.90;99.90
8858;DHT22;4465;50.904;4.696;2023-08-12T01:01:40;20.90;99.90
8858;DHT22;4465;50.904;4.696;2023-08-12T01:04:09;20.90;99.90
8858;DHT22;4465;50.904;4.696;2023-08-12T01:06:36;20.80;99.90
8858;DHT22;4465;50.904;4.696;2023-08-12T01:09:03;20.80;99.90
8858;DHT22;4465;50.904;4.696;2023-08-12T01:14:30;20.80;99.90
8858;DHT22;4465;50.904;4.696;2023-08-12T01:17:00;20.80;99.90
8858;DHT22;4465;50.904;4.696;2023-08-12T01:19:34;20.80;99.90
8858;DHT22;4465;50.904;4.696;2023-08-12T01:22:02;20.80;99.90
8858;DHT22;4465;50.904;4.696;2023-08-12T01:24:34;20.80;99.90
8858;DHT22;4465;50.904;4.696;2023-08-12T01:27:04;20.80;99.90
8858;DHT22;4465;50.904;4.696;2023-08-12T01:29:32;20.70;99.90
8858;DHT22;4465;50.904;4.696;2023-08-12T01:35:05;20.70;99.90
8858;DHT22;4465;50.904;4.696;2023-08-12T01:37:29;20.70;99.90
8858;DHT22;4465;50.904;4.696;2023-08-12T01:40:00;20.70;99.90
8858;DHT22;4465;50.904;4.696;2023-08-12T01:42:28;20.70;99.90
8858;DHT22;4465;50.904;4.696;2023-08-12T01:44:56;20.70;99.90
8858;DHT22;4465;50.904;4.696;2023-08-12T01:47:23;20.70;99.90
8858;DHT22;4465;50.904;4.696;2023-08-12T01:49:48;20.70;99.90
8858;DHT22;4465;50.904;4.696;2023-08-12T01:52:14;20.70;99.90
8858;DHT22;4465;50.904;4.696;2023-08-12T01:54:41;20.70;99.90
8858;DHT22;4465;50.904;4.696;2023-08-12T01:57:07;20.70;99.90
8858;DHT22;4465;50.904;4.696;2023-08-12T01:59:34;20.70;99.90
8858;DHT22;4465;50.904;4.696;2023-08-12T02:02:00;20.70;99.90
8858;DHT22;4465;50.904;4.696;2023-08-12T02:04:27;20.70;99.90
8858;DHT22;4465;50.904;4.696;2023-08-12T02:06:56;20.60;99.90
8858;DHT22;4465;50.904;4.696;2023-08-12T02:09:26;20.60;99.90
8858;DHT22;4465;50.904;4.696;2023-08-12T02:11:54;20.60;99.90
8858;DHT22;4465;50.904;4.696;2023-08-12T02:14:20;20.60;99.90
8858;DHT22;4465;50.904;4.696;2023-08-12T02:16:46;20.60;99.90
8858;DHT22;4465;50.904;4.696;2023-08-12T02:19:12;20.60;99.90
8858;DHT22;4465;50.904;4.696;2023-08-12T02:21:38;20.60;99.90
8858;DHT22;4465;50.904;4.696;2023-08-12T02:24:04;20.60;99.90
8858;DHT22;4465;50.904;4.696;2023-08-12T02:26:30;20.60;99.90
8858;DHT22;4465;50.904;4.696;2023-08-12T02:28:56;20.60;99.90
8858;DHT22;4465;50.904;4.696;2023-08-12T02:31:26;20.60;99.90
8858;DHT22;4465;50.904;4.696;2023-08-12T02:33:52;20.60;99.90
8858;DHT22;4465;50.904;4.696;2023-08-12T02:36:18;20.60;99.90
8858;DHT22;4465;50.904;4.696;2023-08-12T02:38:46;20.60;99.90
8858;DHT22;4465;50.904;4.696;2023-08-12T02:41:14;20.60;99.90
8858;DHT22;4465;50.904;4.696;2023-08-12T02:43:40;20.60;99.90
8858;DHT22;4465;50.904;4.696;2023-08-12T02:46:06;20.60;99.90
8858;DHT22;4465;50.904;4.696;2023-08-12T02:48:37;20.60;99.90
8858;DHT22;4465;50.904;4.696;2023-08-12T02:51:03;20.60;99.90
8858;DHT22;4465;50.904;4.696;2023-08-12T02:53:29;20.60;99.90
8858;DHT22;4465;50.904;4.696;2023-08-12T02:55:55;20.60;99.90
8858;DHT22;4465;50.904;4.696;2023-08-12T02:58:20;20.60;99.90
8858;DHT22;4465;50.904;4.696;2023-08-12T03:00:47;20.60;99.90
8858;DHT22;4465;50.904;4.696;2023-08-12T03:03:13;20.60;99.90
8858;DHT22;4465;50.904;4.696;2023-08-12T03:05:41;20.60;99.90
8858;DHT22;4465;50.904;4.696;2023-08-12T03:08:09;20.60;99.90
8858;DHT22;4465;50.904;4.696;2023-08-12T03:10:38;20.60;99.90
8858;DHT22;4465;50.904;4.696;2023-08-12T03:13:03;20.60;99.90
8858;DHT22;4465;50.904;4.696;2023-08-12T03:15:32;20.60;99.90
8858;DHT22;4465;50.904;4.696;2023-08-12T03:18:00;20.60;99.90
8858;DHT22;4465;50.904;4.696;2023-08-12T03:20:26;20.60;99.90
8858;DHT22;4465;50.904;4.696;2023-08-12T03:22:52;20.60;99.90
8858;DHT22;4465;50.904;4.696;2023-08-12T03:25:18;20.60;99.90
8858;DHT22;4465;50.904;4.696;2023-08-12T03:27:45;20.60;99.90
8858;DHT22;4465;50.904;4.696;2023-08-12T03:30:11;20.60;99.90
8858;DHT22;4465;50.904;4.696;2023-08-12T03:32:40;20.60;99.90
8858;DHT22;4465;50.904;4.696;2023-08-12T03:35:06;20.60;99.90
8858;DHT22;4465;50.904;4.696;2023-08-12T03:37:32;20.60;99.90
8858;DHT22;4465;50.904;4.696;2023-08-12T03:39:58;20.60;99.90
8858;DHT22;4465;50.904;4.696;2023-08-12T03:42:24;20.60;99.90
8858;DHT22;4465;50.904;4.696;2023-08-12T03:44:52;20.60;99.90
8858;DHT22;4465;50.904;4.696;2023-08-12T03:47:18;20.60;99.90
8858;DHT22;4465;50.904;4.696;2023-08-12T03:49:47;20.60;99.90
8858;DHT22;4465;50.904;4.696;2023-08-12T03:52:13;20.60;99.90
8858;DHT22;4465;50.904;4.696;2023-08-12T03:54:42;20.60;99.90
8858;DHT22;4465;50.904;4.696;2023-08-12T03:57:07;20.60;99.90
8858;DHT22;4465;50.904;4.696;2023-08-12T03:59:33;20.60;99.90
8858;DHT22;4465;50.904;4.696;2023-08-12T04:01:59;20.60;99.90
8858;DHT22;4465;50.904;4.696;2023-08-12T04:04:28;20.60;99.90
8858;DHT22;4465;50.904;4.696;2023-08-12T04:06:54;20.60;99.90
8858;DHT22;4465;50.904;4.696;2023-08-12T04:09:20;20.60;99.90
8858;DHT22;4465;50.904;4.696;2023-08-12T04:11:46;20.50;99.90
8858;DHT22;4465;50.904;4.696;2023-08-12T04:14:13;20.50;99.90
8858;DHT22;4465;50.904;4.696;2023-08-12T04:16:39;20.50;99.90
8858;DHT22;4465;50.904;4.696;2023-08-12T04:19:05;20.50;99.90
8858;DHT22;4465;50.904;4.696;2023-08-12T04:21:31;20.50;99.90
8858;DHT22;4465;50.904;4.696;2023-08-12T04:23:57;20.50;99.90
8858;DHT22;4465;50.904;4.696;2023-08-12T04:26:23;20.50;99.90
8858;DHT22;4465;50.904;4.696;2023-08-12T04:28:51;20.50;99.90
8858;DHT22;4465;50.904;4.696;2023-08-12T04:31:17;20.50;99.90
8858;DHT22;4465;50.904;4.696;2023-08-12T04:33:45;20.40;99.90
8858;DHT22;4465;50.904;4.696;2023-08-12T04:36:11;20.40;99.90
8858;DHT22;4465;50.904;4.696;2023-08-12T04:38:40;20.40;99.90
8858;DHT22;4465;50.904;4.696;2023-08-12T04:41:07;20.40;99.90
8858;DHT22;4465;50.904;4.696;2023-08-12T04:43:36;20.40;99.90
8858;DHT22;4465;50.904;4.696;2023-08-12T04:46:01;20.40;99.90
8858;DHT22;4465;50.904;4.696;2023-08-12T04:48:31;20.40;99.90
8858;DHT22;4465;50.904;4.696;2023-08-12T04:50:57;20.30;99.90
8858;DHT22;4465;50.904;4.696;2023-08-12T04:53:27;20.30;99.90
8858;DHT22;4465;50.904;4.696;2023-08-12T04:55:55;20.30;99.90
8858;DHT22;4465;50.904;4.696;2023-08-12T04:58:23;20.30;99.90
8858;DHT22;4465;50.904;4.696;2023-08-12T05:00:50;20.30;99.90
8858;DHT22;4465;50.904;4.696;2023-08-12T05:03:18;20.40;99.90
8858;DHT22;4465;50.904;4.696;2023-08-12T05:05:43;20.40;99.90
8858;DHT22;4465;50.904;4.696;2023-08-12T05:08:12;20.40;99.90
8858;DHT22;4465;50.904;4.696;2023-08-12T05:10:38;20.40;99.90
8858;DHT22;4465;50.904;4.696;2023-08-12T05:13:04;20.40;99.90
8858;DHT22;4465;50.904;4.696;2023-08-12T05:15:29;20.40;99.90
8858;DHT22;4465;50.904;4.696;2023-08-12T05:17:55;20.40;99.90
8858;DHT22;4465;50.904;4.696;2023-08-12T05:20:24;20.30;99.90
8858;DHT22;4465;50.904;4.696;2023-08-12T05:22:52;20.40;99.90
8858;DHT22;4465;50.904;4.696;2023-08-12T05:25:18;20.40;99.90
8858;DHT22;4465;50.904;4.696;2023-08-12T05:27:46;20.40;99.90
8858;DHT22;4465;50.904;4.696;2023-08-12T05:30:12;20.40;99.90
8858;DHT22;4465;50.904;4.696;2023-08-12T05:32:38;20.40;99.90
8858;DHT22;4465;50.904;4.696;2023-08-12T05:35:05;20.40;99.90
8858;DHT22;4465;50.904;4.696;2023-08-12T05:37:33;20.40;99.90
8858;DHT22;4465;50.904;4.696;2023-08-12T05:40:01;20.40;99.90
8858;DHT22;4465;50.904;4.696;2023-08-12T05:42:27;20.40;99.90
8858;DHT22;4465;50.904;4.696;2023-08-12T05:44:53;20.40;99.90
8858;DHT22;4465;50.904;4.696;2023-08-12T05:47:18;20.40;99.90
8858;DHT22;4465;50.904;4.696;2023-08-12T05:49:47;20.40;99.90
8858;DHT22;4465;50.904;4.696;2023-08-12T05:52:13;20.40;99.90
8858;DHT22;4465;50.904;4.696;2023-08-12T05:54:39;20.40;99.90
8858;DHT22;4465;50.904;4.696;2023-08-12T05:57:04;20.40;99.90
8858;DHT22;4465;50.904;4.696;2023-08-12T05:59:32;20.40;99.90
8858;DHT22;4465;50.904;4.696;2023-08-12T06:01:58;20.40;99.90
8858;DHT22;4465;50.904;4.696;2023-08-12T06:04:26;20.40;99.90
8858;DHT22;4465;50.904;4.696;2023-08-12T06:06:55;20.40;99.90
8858;DHT22;4465;50.904;4.696;2023-08-12T06:09:21;20.40;99.90
8858;DHT22;4465;50.904;4.696;2023-08-12T06:11:47;20.40;99.90
8858;DHT22;4465;50.904;4.696;2023-08-12T06:14:15;20.40;99.90
8858;DHT22;4465;50.904;4.696;2023-08-12T06:16:43;20.40;99.90
8858;DHT22;4465;50.904;4.696;2023-08-12T06:19:09;20.40;99.90
8858;DHT22;4465;50.904;4.696;2023-08-12T06:21:35;20.40;99.90
8858;DHT22;4465;50.904;4.696;2023-08-12T06:24:04;20.40;99.90
8858;DHT22;4465;50.904;4.696;2023-08-12T06:26:30;20.40;99.90
8858;DHT22;4465;50.904;4.696;2023-08-12T06:28:55;20.40;99.90
8858;DHT22;4465;50.904;4.696;2023-08-12T06:31:24;20.40;99.90
8858;DHT22;4465;50.904;4.696;2023-08-12T06:33:52;20.40;99.90
8858;DHT22;4465;50.904;4.696;2023-08-12T06:36:18;20.40;99.90
8858;DHT22;4465;50.904;4.696;2023-08-12T06:38:44;20.40;99.90
8858;DHT22;4465;50.904;4.696;2023-08-12T06:41:10;20.40;99.90
8858;DHT22;4465;50.904;4.696;2023-08-12T06:43:36;20.40;99.90
8858;DHT22;4465;50.904;4.696;2023-08-12T06:46:02;20.40;99.90
8858;DHT22;4465;50.904;4.696;2023-08-12T06:48:28;20.40;99.90
8858;DHT22;4465;50.904;4.696;2023-08-12T06:50:55;20.40;99.90
8858;DHT22;4465;50.904;4.696;2023-08-12T06:53:24;20.40;99.90
8858;DHT22;4465;50.904;4.696;2023-08-12T06:55:54;20.40;99.90
8858;DHT22;4465;50.904;4.696;2023-08-12T06:58:20;20.40;99.90
8858;DHT22;4465;50.904;4.696;2023-08-12T07:00:49;20.50;99.90
8858;DHT22;4465;50.904;4.696;2023-08-12T07:03:14;20.50;99.90
8858;DHT22;4465;50.904;4.696;2023-08-12T07:05:43;20.50;99.90
8858;DHT22;4465;50.904;4.696;2023-08-12T07:08:09;20.50;99.90
8858;DHT22;4465;50.904;4.696;2023-08-12T07:10:38;20.50;99.90
8858;DHT22;4465;50.904;4.696;2023-08-12T07:13:04;20.60;99.90
8858;DHT22;4465;50.904;4.696;2023-08-12T07:15:30;20.50;99.90
8858;DHT22;4465;50.904;4.696;2023-08-12T07:17:58;20.60;99.90
8858;DHT22;4465;50.904;4.696;2023-08-12T07:20:25;20.60;99.90
8858;DHT22;4465;50.904;4.696;2023-08-12T07:22:54;20.60;99.90
8858;DHT22;4465;50.904;4.696;2023-08-12T07:25:20;20.60;99.90
8858;DHT22;4465;50.904;4.696;2023-08-12T07:27:46;20.60;99.90
8858;DHT22;4465;50.904;4.696;2023-08-12T07:30:14;20.60;99.90
8858;DHT22;4465;50.904;4.696;2023-08-12T07:32:42;20.60;99.90
8858;DHT22;4465;50.904;4.696;2023-08-12T07:35:08;20.60;99.90
8858;DHT22;4465;50.904;4.696;2023-08-12T07:37:34;20.60;99.90
8858;DHT22;4465;50.904;4.696;2023-08-12T07:40:03;20.60;99.90
8858;DHT22;4465;50.904;4.696;2023-08-12T07:42:29;20.70;99.90
8858;DHT22;4465;50.904;4.696;2023-08-12T07:44:55;20.70;99.90
8858;DHT22;4465;50.904;4.696;2023-08-12T07:47:21;20.70;99.90
8858;DHT22;4465;50.904;4.696;2023-08-12T07:49:49;20.80;99.90
8858;DHT22;4465;50.904;4.696;2023-08-12T07:52:15;20.80;99.90
8858;DHT22;4465;50.904;4.696;2023-08-12T07:54:41;20.80;99.90
8858;DHT22;4465;50.904;4.696;2023-08-12T07:57:07;20.80;99.90
8858;DHT22;4465;50.904;4.696;2023-08-12T07:59:33;20.70;99.90
8858;DHT22;4465;50.904;4.696;2023-08-12T08:02:01;20.80;99.90
8858;DHT22;4465;50.904;4.696;2023-08-12T08:04:27;20.80;99.90
8858;DHT22;4465;50.904;4.696;2023-08-12T08:06:52;20.80;99.90
8858;DHT22;4465;50.904;4.696;2023-08-12T08:09:18;20.70;99.90
8858;DHT22;4465;50.904;4.696;2023-08-12T08:11:44;20.70;99.90
8858;DHT22;4465;50.904;4.696;2023-08-12T08:14:10;20.60;99.90
8858;DHT22;4465;50.904;4.696;2023-08-12T08:16:36;20.60;99.90
8858;DHT22;4465;50.904;4.696;2023-08-12T08:19:05;20.60;99.90
8858;DHT22;4465;50.904;4.696;2023-08-12T08:21:31;20.50;99.90
8858;DHT22;4465;50.904;4.696;2023-08-12T08:23:57;20.40;99.90
8858;DHT22;4465;50.904;4.696;2023-08-12T08:26:26;20.40;99.90
8858;DHT22;4465;50.904;4.696;2023-08-12T08:28:52;20.30;99.90
8858;DHT22;4465;50.904;4.696;2023-08-12T08:31:20;20.30;99.90
8858;DHT22;4465;50.904;4.696;2023-08-12T08:33:46;20.30;99.90
8858;DHT22;4465;50.904;4.696;2023-08-12T08:36:12;20.20;99.90
8858;DHT22;4465;50.904;4.696;2023-08-12T08:38:38;20.10;99.90
8858;DHT22;4465;50.904;4.696;2023-08-12T08:41:05;20.00;99.90
8858;DHT22;4465;50.904;4.696;2023-08-12T08:43:35;20.00;99.90
8858;DHT22;4465;50.904;4.696;2023-08-12T08:46:02;20.00;99.90
8858;DHT22;4465;50.904;4.696;2023-08-12T08:48:33;20.00;99.90
8858;DHT22;4465;50.904;4.696;2023-08-12T08:51:02;20.00;99.90
8858;DHT22;4465;50.904;4.696;2023-08-12T08:53:28;20.00;99.90
8858;DHT22;4465;50.904;4.696;2023-08-12T08:55:55;20.00;99.90
8858;DHT22;4465;50.904;4.696;2023-08-12T08:58:21;20.10;99.90
8858;DHT22;4465;50.904;4.696;2023-08-12T09:00:49;20.10;99.90
8858;DHT22;4465;50.904;4.696;2023-08-12T09:03:18;20.10;99.90
8858;DHT22;4465;50.904;4.696;2023-08-12T09:05:44;20.10;99.90
8858;DHT22;4465;50.904;4.696;2023-08-12T09:08:11;20.20;99.90
8858;DHT22;4465;50.904;4.696;2023-08-12T09:10:40;20.20;99.90
8858;DHT22;4465;50.904;4.696;2023-08-12T09:13:07;20.20;99.90
8858;DHT22;4465;50.904;4.696;2023-08-12T09:15:34;20.20;99.90
8858;DHT22;4465;50.904;4.696;2023-08-12T09:18:06;20.10;99.90
8858;DHT22;4465;50.904;4.696;2023-08-12T09:20:38;20.10;99.90
8858;DHT22;4465;50.904;4.696;2023-08-12T09:23:06;20.10;99.90
8858;DHT22;4465;50.904;4.696;2023-08-12T09:25:35;20.10;99.90
8858;DHT22;4465;50.904;4.696;2023-08-12T09:28:04;20.10;99.90
8858;DHT22;4465;50.904;4.696;2023-08-12T09:30:33;20.10;99.90
8858;DHT22;4465;50.904;4.696;2023-08-12T09:33:02;20.10;99.90
8858;DHT22;4465;50.904;4.696;2023-08-12T09:35:55;20.10;99.90
8858;DHT22;4465;50.904;4.696;2023-08-12T09:38:25;20.00;99.90
8858;DHT22;4465;50.904;4.696;2023-08-12T09:40:52;19.90;99.90
8858;DHT22;4465;50.904;4.696;2023-08-12T09:43:18;19.80;99.90
8858;DHT22;4465;50.904;4.696;2023-08-12T09:45:45;19.80;99.90
8858;DHT22;4465;50.904;4.696;2023-08-12T09:48:13;19.80;99.90
8858;DHT22;4465;50.904;4.696;2023-08-12T09:50:39;19.80;99.90
8858;DHT22;4465;50.904;4.696;2023-08-12T09:53:09;19.80;99.90
8858;DHT22;4465;50.904;4.696;2023-08-12T09:55:35;19.80;99.90
8858;DHT22;4465;50.904;4.696;2023-08-12T09:58:06;19.80;99.90
8858;DHT22;4465;50.904;4.696;2023-08-12T10:00:33;19.80;99.90
8858;DHT22;4465;50.904;4.696;2023-08-12T10:03:01;19.70;99.90
8858;DHT22;4465;50.904;4.696;2023-08-12T10:05:28;19.70;99.90
8858;DHT22;4465;50.904;4.696;2023-08-12T10:07:56;19.70;99.90
8858;DHT22;4465;50.904;4.696;2023-08-12T10:10:24;19.70;99.90
8858;DHT22;4465;50.904;4.696;2023-08-12T10:12:51;19.70;99.90
8858;DHT22;4465;50.904;4.696;2023-08-12T10:15:17;19.70;99.90
8858;DHT22;4465;50.904;4.696;2023-08-12T10:17:44;19.60;99.90
8858;DHT22;4465;50.904;4.696;2023-08-12T10:20:16;19.60;99.90
8858;DHT22;4465;50.904;4.696;2023-08-12T10:22:46;19.60;99.90
8858;DHT22;4465;50.904;4.696;2023-08-12T10:25:15;19.60;99.90
8858;DHT22;4465;50.904;4.696;2023-08-12T10:27:48;19.60;99.90
8858;DHT22;4465;50.904;4.696;2023-08-12T10:30:14;19.70;99.90
8858;DHT22;4465;50.904;4.696;2023-08-12T10:32:41;19.70;99.90
8858;DHT22;4465;50.904;4.696;2023-08-12T10:35:08;19.80;99.90
8858;DHT22;4465;50.904;4.696;2023-08-12T10:37:34;19.80;99.90
8858;DHT22;4465;50.904;4.696;2023-08-12T10:40:09;19.70;99.90
8858;DHT22;4465;50.904;4.696;2023-08-12T10:42:46;19.70;99.90
8858;DHT22;4465;50.904;4.696;2023-08-12T10:45:16;19.70;99.90
8858;DHT22;4465;50.904;4.696;2023-08-12T10:47:43;19.60;99.90
8858;DHT22;4465;50.904;4.696;2023-08-12T10:50:21;19.60;99.90
8858;DHT22;4465;50.904;4.696;2023-08-12T10:52:51;19.60;99.90
8858;DHT22;4465;50.904;4.696;2023-08-12T10:55:22;19.60;99.90
8858;DHT22;4465;50.904;4.696;2023-08-12T10:57:53;19.70;99.90
8858;DHT22;4465;50.904;4.696;2023-08-12T11:00:24;19.80;99.90
8858;DHT22;4465;50.904;4.696;2023-08-12T11:03:00;19.90;99.90
8858;DHT22;4465;50.904;4.696;2023-08-12T11:05:40;20.00;99.90
8858;DHT22;4465;50.904;4.696;2023-08-12T11:08:06;20.10;99.90
8858;DHT22;4465;50.904;4.696;2023-08-12T11:10:33;20.20;99.90
8858;DHT22;4465;50.904;4.696;2023-08-12T11:13:03;20.30;99.90
8858;DHT22;4465;50.904;4.696;2023-08-12T11:18:07;20.60;99.90
8858;DHT22;4465;50.904;4.696;2023-08-12T11:20:35;20.70;99.90
8858;DHT22;4465;50.904;4.696;2023-08-12T11:23:02;20.90;99.90
8858;DHT22;4465;50.904;4.696;2023-08-12T11:25:29;20.90;99.90
8858;DHT22;4465;50.904;4.696;2023-08-12T11:27:56;21.00;99.90
8858;DHT22;4465;50.904;4.696;2023-08-12T11:30:25;21.20;99.90
8858;DHT22;4465;50.904;4.696;2023-08-12T11:32:52;21.60;99.90
8858;DHT22;4465;50.904;4.696;2023-08-12T11:35:22;22.00;99.90
8858;DHT22;4465;50.904;4.696;2023-08-12T11:37:53;22.40;99.90
8858;DHT22;4465;50.904;4.696;2023-08-12T11:40:19;22.80;99.90
8858;DHT22;4465;50.904;4.696;2023-08-12T11:42:47;23.20;99.90
8858;DHT22;4465;50.904;4.696;2023-08-12T11:45:18;23.70;99.90
8858;DHT22;4465;50.904;4.696;2023-08-12T11:47:47;24.10;99.90
8858;DHT22;4465;50.904;4.696;2023-08-12T11:50:19;24.60;99.90
8858;DHT22;4465;50.904;4.696;2023-08-12T11:52:46;24.90;99.90
8858;DHT22;4465;50.904;4.696;2023-08-12T11:55:12;25.20;99.90
8858;DHT22;4465;50.904;4.696;2023-08-12T11:57:42;25.50;99.90
8858;DHT22;4465;50.904;4.696;2023-08-12T12:00:14;25.70;99.90
8858;DHT22;4465;50.904;4.696;2023-08-12T12:02:48;25.80;99.90
8858;DHT22;4465;50.904;4.696;2023-08-12T12:05:16;25.90;99.90
8858;DHT22;4465;50.904;4.696;2023-08-12T12:07:42;26.00;99.90
8858;DHT22;4465;50.904;4.696;2023-08-12T12:10:33;26.00;99.90
8858;DHT22;4465;50.904;4.696;2023-08-12T12:13:03;25.80;99.90
8858;DHT22;4465;50.904;4.696;2023-08-12T12:15:30;25.60;99.90
8858;DHT22;4465;50.904;4.696;2023-08-12T12:17:56;25.20;99.90
8858;DHT22;4465;50.904;4.696;2023-08-12T12:20:24;24.80;99.90
8858;DHT22;4465;50.904;4.696;2023-08-12T12:22:52;24.60;99.90
8858;DHT22;4465;50.904;4.696;2023-08-12T12:25:22;24.60;99.90
8858;DHT22;4465;50.904;4.696;2023-08-12T12:27:48;24.80;99.90
8858;DHT22;4465;50.904;4.696;2023-08-12T12:30:16;25.20;99.90
8858;DHT22;4465;50.904;4.696;2023-08-12T12:32:42;25.70;99.90
8858;DHT22;4465;50.904;4.696;2023-08-12T12:35:11;26.20;99.90
8858;DHT22;4465;50.904;4.696;2023-08-12T12:37:39;26.50;99.90
8858;DHT22;4465;50.904;4.696;2023-08-12T12:40:08;26.70;99.90
8858;DHT22;4465;50.904;4.696;2023-08-12T12:42:35;26.80;99.90
8858;DHT22;4465;50.904;4.696;2023-08-12T12:45:02;26.90;99.90
8858;DHT22;4465;50.904;4.696;2023-08-12T12:47:28;27.00;99.90
8858;DHT22;4465;50.904;4.696;2023-08-12T12:49:53;27.00;99.90
8858;DHT22;4465;50.904;4.696;2023-08-12T12:52:19;27.00;99.90
8858;DHT22;4465;50.904;4.696;2023-08-12T12:54:47;26.90;99.90
8858;DHT22;4465;50.904;4.696;2023-08-12T12:57:16;26.70;99.90
8858;DHT22;4465;50.904;4.696;2023-08-12T12:59:41;26.60;99.90
8858;DHT22;4465;50.904;4.696;2023-08-12T13:02:12;26.40;99.90
8858;DHT22;4465;50.904;4.696;2023-08-12T13:04:38;26.10;99.90
8858;DHT22;4465;50.904;4.696;2023-08-12T13:07:04;25.80;99.90
8858;DHT22;4465;50.904;4.696;2023-08-12T13:09:29;25.60;99.90
8858;DHT22;4465;50.904;4.696;2023-08-12T13:11:56;25.50;99.90
8858;DHT22;4465;50.904;4.696;2023-08-12T13:14:24;25.30;99.90
8858;DHT22;4465;50.904;4.696;2023-08-12T13:16:50;25.20;99.90
8858;DHT22;4465;50.904;4.696;2023-08-12T13:19:16;25.20;99.90
8858;DHT22;4465;50.904;4.696;2023-08-12T13:21:42;25.10;99.90
8858;DHT22;4465;50.904;4.696;2023-08-12T13:24:08;25.00;99.90
8858;DHT22;4465;50.904;4.696;2023-08-12T13:26:34;24.90;99.90
8858;DHT22;4465;50.904;4.696;2023-08-12T13:28:59;24.90;99.90
8858;DHT22;4465;50.904;4.696;2023-08-12T13:31:25;24.90;99.90
8858;DHT22;4465;50.904;4.696;2023-08-12T13:33:51;24.90;99.90
8858;DHT22;4465;50.904;4.696;2023-08-12T13:36:17;24.90;99.90
8858;DHT22;4465;50.904;4.696;2023-08-12T13:38:43;25.00;99.90
8858;DHT22;4465;50.904;4.696;2023-08-12T13:41:09;25.00;99.90
8858;DHT22;4465;50.904;4.696;2023-08-12T13:43:35;25.00;99.90
8858;DHT22;4465;50.904;4.696;2023-08-12T13:46:01;24.90;99.90
8858;DHT22;4465;50.904;4.696;2023-08-12T13:48:29;24.90;99.90
8858;DHT22;4465;50.904;4.696;2023-08-12T13:50:58;24.90;99.90
8858;DHT22;4465;50.904;4.696;2023-08-12T13:53:26;24.90;99.90
8858;DHT22;4465;50.904;4.696;2023-08-12T13:55:52;24.70;99.90
8858;DHT22;4465;50.904;4.696;2023-08-12T13:58:20;24.60;99.90
8858;DHT22;4465;50.904;4.696;2023-08-12T14:00:46;24.40;99.90
8858;DHT22;4465;50.904;4.696;2023-08-12T14:03:12;24.20;99.90
8858;DHT22;4465;50.904;4.696;2023-08-12T14:05:38;24.10;99.90
8858;DHT22;4465;50.904;4.696;2023-08-12T14:08:04;24.00;99.90
8858;DHT22;4465;50.904;4.696;2023-08-12T14:10:32;24.00;99.90
8858;DHT22;4465;50.904;4.696;2023-08-12T14:12:58;23.90;99.90
8858;DHT22;4465;50.904;4.696;2023-08-12T14:15:24;23.80;99.90
8858;DHT22;4465;50.904;4.696;2023-08-12T14:17:50;23.80;99.90
8858;DHT22;4465;50.904;4.696;2023-08-12T14:20:18;23.80;99.90
8858;DHT22;4465;50.904;4.696;2023-08-12T14:22:44;23.70;99.90
8858;DHT22;4465;50.904;4.696;2023-08-12T14:25:10;23.70;99.90
8858;DHT22;4465;50.904;4.696;2023-08-12T14:27:36;23.70;99.90
8858;DHT22;4465;50.904;4.696;2023-08-12T14:30:05;23.60;99.90
8858;DHT22;4465;50.904;4.696;2023-08-12T14:32:31;23.60;99.90
8858;DHT22;4465;50.904;4.696;2023-08-12T14:34:57;23.60;99.90
8858;DHT22;4465;50.904;4.696;2023-08-12T14:37:23;23.60;99.90
8858;DHT22;4465;50.904;4.696;2023-08-12T14:39:55;23.50;99.90
8858;DHT22;4465;50.904;4.696;2023-08-12T14:42:21;23.50;99.90
8858;DHT22;4465;50.904;4.696;2023-08-12T14:44:47;23.40;99.90
8858;DHT22;4465;50.904;4.696;2023-08-12T14:47:13;23.40;99.90
8858;DHT22;4465;50.904;4.696;2023-08-12T14:49:41;23.40;99.90
8858;DHT22;4465;50.904;4.696;2023-08-12T14:52:15;23.30;99.90
8858;DHT22;4465;50.904;4.696;2023-08-12T14:54:41;23.30;99.90
8858;DHT22;4465;50.904;4.696;2023-08-12T14:57:07;23.20;99.90
8858;DHT22;4465;50.904;4.696;2023-08-12T14:59:33;23.20;99.90
8858;DHT22;4465;50.904;4.696;2023-08-12T15:01:59;23.10;99.90
8858;DHT22;4465;50.904;4.696;2023-08-12T15:04:27;23.10;99.90
8858;DHT22;4465;50.904;4.696;2023-08-12T15:06:53;23.20;99.90
8858;DHT22;4465;50.904;4.696;2023-08-12T15:09:19;23.20;99.90
8858;DHT22;4465;50.904;4.696;2023-08-12T15:11:45;23.20;99.90
8858;DHT22;4465;50.904;4.696;2023-08-12T15:14:13;23.20;99.90
8858;DHT22;4465;50.904;4.696;2023-08-12T15:16:41;23.10;99.90
8858;DHT22;4465;50.904;4.696;2023-08-12T15:19:09;23.10;99.90
8858;DHT22;4465;50.904;4.696;2023-08-12T15:21:35;23.10;99.90
8858;DHT22;4465;50.904;4.696;2023-08-12T15:24:01;23.10;99.90
8858;DHT22;4465;50.904;4.696;2023-08-12T15:26:27;23.00;99.90
8858;DHT22;4465;50.904;4.696;2023-08-12T15:28:53;23.00;99.90
8858;DHT22;4465;50.904;4.696;2023-08-12T15:31:19;23.00;99.90
8858;DHT22;4465;50.904;4.696;2023-08-12T15:33:45;23.00;99.90
8858;DHT22;4465;50.904;4.696;2023-08-12T15:36:12;23.10;99.90
8858;DHT22;4465;50.904;4.696;2023-08-12T15:38:38;23.10;99.90
8858;DHT22;4465;50.904;4.696;2023-08-12T15:41:12;23.00;99.90
8858;DHT22;4465;50.904;4.696;2023-08-12T15:43:38;23.00;99.90
8858;DHT22;4465;50.904;4.696;2023-08-12T15:46:04;23.00;99.90
8858;DHT22;4465;50.904;4.696;2023-08-12T15:48:33;23.00;99.90
8858;DHT22;4465;50.904;4.696;2023-08-12T15:50:59;22.90;99.90
8858;DHT22;4465;50.904;4.696;2023-08-12T15:53:25;22.80;99.90
8858;DHT22;4465;50.904;4.696;2023-08-12T15:55:53;22.80;99.90
8858;DHT22;4465;50.904;4.696;2023-08-12T15:58:19;22.80;99.90
8858;DHT22;4465;50.904;4.696;2023-08-12T16:00:45;22.80;99.90
8858;DHT22;4465;50.904;4.696;2023-08-12T16:03:14;22.80;99.90
8858;DHT22;4465;50.904;4.696;2023-08-12T16:05:44;22.80;99.90
8858;DHT22;4465;50.904;4.696;2023-08-12T16:08:10;22.80;99.90
8858;DHT22;4465;50.904;4.696;2023-08-12T16:10:37;22.80;99.90